°F Temp
55°F Dewpoint
83% Humidity
Temperature
6 MPH
10 KM/H
5 KTS
340°
North North
West

Wind Speed
Clear
Conditions
Pressure 1016.92 (hPa) - 30.03 (in)
Visibility 10.0 (mi) - 16.1 (km)

Current Conditions
KSJC
Location 9(mi)
Metar :KSJC 040753Z AUTO 34005KT 10SM CLR 16/13 A3003 RMK AO2 SLP169 T01560128 402390139 $
Mon 3rd October 23:53 pm

Airport
  Metar Aviation API Data Provided by https://www.checkwx.com/ PHP scripts by weather34.com ©2022